Time;durP1;ratioP1;P1;durP2;ratioP2;P2;SDS_P1;SDS_P2;PMS_P1;PMS_P2;Temp;Humidity;BMP_temperature;BMP_pressure;BME280_temperature;BME280_humidity;BME280_pressure;Samples;Min_cycle;Max_cycle;Signal;HPM_P1;HPM_P2
2023/01/12 00:03:02;;;;;;;8.70;3.80;;;;;;;3.81;100.00;98680.93;221426;1275;22596;-77
2023/01/12 00:08:09;;;;;;;7.00;3.70;;;;;;;3.80;100.00;98681.88;221533;1275;22540;-77
2023/01/12 00:13:24;;;;;;;7.80;3.90;;;;;;;3.80;100.00;98680.66;222198;1279;22585;-76
2023/01/12 00:18:27;;;;;;;7.70;3.60;;;;;;;3.80;100.00;98688.19;221353;1278;25484;-76
2023/01/12 00:24:13;;;;;;;8.10;4.10;;;;;;;3.81;100.00;98688.78;222407;1279;22593;-77
2023/01/12 00:29:20;;;;;;;7.70;3.70;;;;;;;3.82;100.00;98695.05;221628;1275;25443;-77
2023/01/12 00:34:29;;;;;;;5.10;3.50;;;;;;;3.82;100.00;98696.27;222352;1279;22539;-76
2023/01/12 00:39:42;;;;;;;7.90;3.60;;;;;;;3.81;100.00;98693.08;221446;1279;25337;-77
2023/01/12 00:50:23;;;;;;;7.70;4.00;;;;;;;3.82;100.00;98703.52;221511;1275;24320;-77
2023/01/12 00:55:26;;;;;;;6.70;3.90;;;;;;;3.83;100.00;98711.16;221872;1278;22860;-77
2023/01/12 01:00:32;;;;;;;6.60;3.70;;;;;;;3.84;100.00;98710.18;221558;1279;22567;-78
2023/01/12 01:05:37;;;;;;;8.80;4.50;;;;;;;3.84;100.00;98707.90;221402;1278;23945;-77
2023/01/12 01:10:40;;;;;;;8.90;4.80;;;;;;;3.85;100.00;98720.69;221403;1278;24406;-77
2023/01/12 01:15:42;;;;;;;6.50;3.90;;;;;;;3.87;100.00;98726.38;222368;1278;23792;-77
2023/01/12 01:20:46;;;;;;;7.90;4.60;;;;;;;3.88;100.00;98722.85;221644;1279;23926;-76
2023/01/12 01:26:00;;;;;;;6.00;4.30;;;;;;;3.89;100.00;98722.95;221411;1261;22763;-77
2023/01/12 01:31:12;;;;;;;8.00;4.90;;;;;;;3.92;100.00;98727.14;221634;1272;22526;-77
2023/01/12 01:36:19;;;;;;;8.60;4.50;;;;;;;3.93;100.00;98729.22;221714;1275;23770;-77
2023/01/12 01:41:48;;;;;;;8.00;4.70;;;;;;;3.94;100.00;98727.52;221603;1279;22801;-76
2023/01/12 01:47:01;;;;;;;9.80;5.70;;;;;;;3.94;100.00;98726.96;221595;1275;22533;-76
2023/01/12 01:52:18;;;;;;;7.10;4.50;;;;;;;3.96;100.00;98732.16;221369;1275;22712;-77
2023/01/12 01:57:27;;;;;;;6.60;3.80;;;;;;;3.98;100.00;98729.96;221633;1275;22547;-75
2023/01/12 02:02:48;;;;;;;8.00;4.20;;;;;;;4.00;100.00;98734.75;221692;1279;22588;-76
2023/01/12 02:07:59;;;;;;;7.10;4.60;;;;;;;4.03;100.00;98739.52;221595;1278;24334;-77
2023/01/12 02:18:35;;;;;;;8.30;5.20;;;;;;;4.04;100.00;98742.20;221852;1275;24330;-77
2023/01/12 02:24:26;;;;;;;8.90;5.20;;;;;;;4.05;100.00;98741.83;221603;1272;23843;-77
2023/01/12 02:30:09;;;;;;;7.10;4.20;;;;;;;4.06;100.00;98742.36;221358;1279;22623;-75
2023/01/12 02:35:37;;;;;;;8.80;4.70;;;;;;;4.07;100.00;98740.67;221648;1279;23025;-77
2023/01/12 02:41:19;;;;;;;7.00;4.20;;;;;;;4.07;100.00;98742.74;221523;1278;22551;-77
2023/01/12 02:46:43;;;;;;;8.20;4.50;;;;;;;4.07;100.00;98747.84;221339;1279;22575;-75
2023/01/12 02:51:55;;;;;;;9.20;4.70;;;;;;;4.09;100.00;98745.52;221437;1270;22531;-76
2023/01/12 02:57:07;;;;;;;8.90;5.60;;;;;;;4.09;100.00;98744.54;221380;1279;22539;-77
2023/01/12 03:02:17;;;;;;;11.10;6.40;;;;;;;4.10;100.00;98738.87;221763;1275;22894;-77
2023/01/12 03:07:32;;;;;;;7.90;5.40;;;;;;;4.12;100.00;98747.68;221456;1276;23772;-77
2023/01/12 03:12:43;;;;;;;8.90;5.10;;;;;;;4.13;100.00;98749.81;221632;1276;22643;-77
2023/01/12 03:18:27;;;;;;;10.20;6.00;;;;;;;4.14;100.00;98754.44;221655;1279;22538;-76
2023/01/12 03:23:49;;;;;;;7.80;4.90;;;;;;;4.15;100.00;98750.74;221553;1276;22583;-76
2023/01/12 03:29:04;;;;;;;12.40;6.00;;;;;;;4.12;100.00;98750.97;222329;1278;22564;-77
2023/01/12 03:34:09;;;;;;;10.90;6.30;;;;;;;4.10;100.00;98754.30;221499;1279;22530;-77
2023/01/12 03:39:36;;;;;;;12.90;7.50;;;;;;;4.07;100.00;98759.19;221560;1279;22585;-77
2023/01/12 03:45:23;;;;;;;10.50;6.60;;;;;;;4.04;100.00;98757.56;221639;1279;22539;-76
2023/01/12 03:50:50;;;;;;;14.30;6.90;;;;;;;4.01;100.00;98752.27;221630;1279;25272;-78
2023/01/12 03:56:07;;;;;;;14.30;8.00;;;;;;;3.91;100.00;98750.92;221690;1276;24229;-77
2023/01/12 04:01:15;;;;;;;23.30;12.00;;;;;;;3.81;100.00;98757.92;222224;1279;22634;-76
2023/01/12 04:06:41;;;;;;;28.30;15.80;;;;;;;3.72;100.00;98754.63;221541;1279;25244;-78
2023/01/12 04:17:13;;;;;;;19.60;12.20;;;;;;;3.58;100.00;98751.69;221430;1279;24370;-77
2023/01/12 04:27:52;;;;;;;19.00;10.60;;;;;;;3.51;100.00;98774.95;222281;1279;25587;-76
2023/01/12 04:32:55;;;;;;;14.40;9.60;;;;;;;3.48;100.00;98774.16;221581;1275;24423;-77
2023/01/12 04:38:05;;;;;;;21.90;12.10;;;;;;;3.45;100.00;98770.30;222535;1279;22736;-77
2023/01/12 04:43:08;;;;;;;19.70;10.70;;;;;;;3.43;100.00;98774.40;221403;1279;22534;-76
2023/01/12 04:48:13;;;;;;;21.10;12.40;;;;;;;3.41;100.00;98774.11;221368;1278;22578;-77
2023/01/12 04:53:20;;;;;;;21.60;12.00;;;;;;;3.41;100.00;98771.50;222293;1279;22590;-76
2023/01/12 04:58:23;;;;;;;20.00;12.20;;;;;;;3.41;100.00;98774.61;221583;1275;24796;-76
2023/01/12 05:03:30;;;;;;;19.50;11.00;;;;;;;3.40;100.00;98785.59;221366;1279;24232;-76
2023/01/12 05:14:02;;;;;;;17.60;9.90;;;;;;;3.40;100.00;98775.52;221700;1269;22547;-77
2023/01/12 05:19:08;;;;;;;21.70;11.90;;;;;;;3.38;100.00;98780.05;221494;1278;24260;-76
2023/01/12 05:24:15;;;;;;;21.70;11.60;;;;;;;3.38;100.00;98779.25;221691;1275;22584;-76
2023/01/12 05:29:18;;;;;;;22.40;11.70;;;;;;;3.37;100.00;98786.11;221475;1279;22576;-76
2023/01/12 05:34:21;;;;;;;20.30;12.70;;;;;;;3.37;100.00;98792.89;221642;1269;25428;-76
2023/01/12 05:39:24;;;;;;;22.30;12.00;;;;;;;3.39;100.00;98787.99;221365;1279;22596;-76
2023/01/12 05:44:36;;;;;;;19.60;11.50;;;;;;;3.40;100.00;98784.98;221443;1279;22571;-77
2023/01/12 05:49:38;;;;;;;21.40;13.50;;;;;;;3.39;100.00;98795.48;221578;1275;22635;-76
2023/01/12 05:54:46;;;;;;;21.70;12.10;;;;;;;3.39;100.00;98792.75;221416;1272;22544;-77
2023/01/12 05:59:48;;;;;;;22.20;12.50;;;;;;;3.36;100.00;98798.98;221360;1279;22605;-77
2023/01/12 06:04:56;;;;;;;21.60;11.30;;;;;;;3.33;100.00;98802.20;221574;1262;22531;-76
2023/01/12 06:10:03;;;;;;;24.40;12.40;;;;;;;3.30;100.00;98802.05;221433;1278;22528;-77
2023/01/12 06:15:06;;;;;;;28.10;13.50;;;;;;;3.25;100.00;98800.97;221663;1278;24235;-76
2023/01/12 06:20:15;;;;;;;28.00;14.90;;;;;;;3.20;100.00;98803.54;221320;1279;22624;-77
2023/01/12 06:25:21;;;;;;;32.50;17.00;;;;;;;3.16;100.00;98803.24;221352;1278;24332;-76
2023/01/12 06:30:24;;;;;;;33.00;18.60;;;;;;;3.11;100.00;98802.05;221403;1279;22571;-75
2023/01/12 06:35:26;;;;;;;31.60;17.80;;;;;;;3.05;100.00;98812.48;221424;1279;22530;-76
2023/01/12 06:40:38;;;;;;;30.40;17.20;;;;;;;2.99;100.00;98812.16;221593;1276;22714;-76
2023/01/12 06:45:43;;;;;;;30.80;17.30;;;;;;;2.93;100.00;98812.58;221299;1279;23238;-77
2023/01/12 06:50:48;;;;;;;34.40;17.70;;;;;;;2.87;100.00;98822.06;221698;1263;22550;-72
2023/01/12 06:55:52;;;;;;;30.00;16.90;;;;;;;2.84;100.00;98818.09;221727;1269;138813;-74
2023/01/12 07:01:00;;;;;;;29.40;16.20;;;;;;;2.82;100.00;98823.59;221635;1274;138754;-75
2023/01/12 07:06:02;;;;;;;25.50;13.40;;;;;;;2.82;100.00;98806.61;221980;1269;138998;-75
2023/01/12 07:11:19;;;;;;;27.80;14.80;;;;;;;2.83;100.00;98810.98;221861;1256;138595;-77
2023/01/12 07:16:23;;;;;;;26.70;14.60;;;;;;;2.85;100.00;98818.63;222858;1275;138577;-75
2023/01/12 07:21:26;;;;;;;30.70;16.80;;;;;;;2.87;100.00;98821.36;221858;1272;22592;-76
2023/01/12 07:26:34;;;;;;;32.10;16.10;;;;;;;2.89;100.00;98808.49;221691;1272;138418;-75
2023/01/12 07:31:39;;;;;;;33.70;18.10;;;;;;;2.91;100.00;98812.70;221841;1272;138501;-75
2023/01/12 07:36:51;;;;;;;33.30;17.40;;;;;;;2.96;100.00;98809.20;222041;1276;138646;-77
2023/01/12 07:47:54;;;;;;;;;;;;;;;;;;;;;
2023/01/12 07:53:11;;;;;;;30.20;15.30;;;;;;;3.37;100.00;98820.59;222827;1279;139658;-76
2023/01/12 07:58:39;;;;;;;30.20;16.70;;;;;;;3.48;100.00;98817.77;221629;1279;139062;-77
2023/01/12 08:04:02;;;;;;;;;;;;;;;;;;;;;
2023/01/12 08:09:13;;;;;;;32.30;16.70;;;;;;;4.41;100.00;98817.84;221428;1260;24222;-77
2023/01/12 08:15:02;;;;;;;24.40;14.20;;;;;;;4.50;100.00;98818.58;222792;1273;139463;-77
2023/01/12 08:20:13;;;;;;;23.50;13.90;;;;;;;4.60;100.00;98814.84;222916;1273;138835;-74
2023/01/12 08:25:29;;;;;;;28.10;16.10;;;;;;;4.75;100.00;98818.55;221644;1279;138791;-75
2023/01/12 08:30:36;;;;;;;23.10;12.10;;;;;;;4.79;100.00;98825.51;221655;1272;138957;-75
2023/01/12 08:36:04;;;;;;;;;;;;;;;;;;;;;
2023/01/12 08:41:46;;;;;;;;;;;;;;;;;;;;;
2023/01/12 08:46:59;;;;;;;22.60;10.80;;;;;;;4.58;100.00;98836.35;221626;1279;139644;-76
2023/01/12 08:52:04;;;;;;;20.60;10.00;;;;;;;4.57;100.00;98842.48;222823;1272;22538;-77
2023/01/12 08:57:10;;;;;;;17.70;10.40;;;;;;;4.54;100.00;98842.24;221848;1277;24205;-76
2023/01/12 09:02:14;;;;;;;22.40;11.20;;;;;;;4.64;100.00;98845.08;221832;1275;138292;-75
2023/01/12 09:07:18;;;;;;;16.90;9.80;;;;;;;4.79;100.00;98840.67;221705;1278;139086;-75
2023/01/12 09:12:21;;;;;;;21.30;10.20;;;;;;;4.96;100.00;98835.96;222886;1272;139007;-74
2023/01/12 09:17:26;;;;;;;15.00;8.50;;;;;;;5.12;100.00;98834.54;221553;1279;138750;-76
2023/01/12 09:22:35;;;;;;;15.30;8.30;;;;;;;5.29;100.00;98824.55;221570;1279;138625;-75
2023/01/12 09:27:40;;;;;;;13.20;6.90;;;;;;;5.44;100.00;98821.54;221746;1276;22654;-75
2023/01/12 09:32:45;;;;;;;14.50;7.30;;;;;;;5.55;100.00;98810.85;221856;1273;138813;-76
2023/01/12 09:37:54;;;;;;;11.50;6.40;;;;;;;5.65;100.00;98814.42;222740;1263;138415;-77
2023/01/12 09:48:26;;;;;;;11.90;7.00;;;;;;;5.78;100.00;98814.09;221607;1277;138467;-73
2023/01/12 09:53:40;;;;;;;13.00;6.90;;;;;;;5.87;100.00;98814.42;221392;1281;138482;-76
2023/01/12 09:59:17;;;;;;;13.70;6.10;;;;;;;5.94;100.00;98810.59;221307;1280;138438;-75
2023/01/12 10:04:20;;;;;;;7.70;5.10;;;;;;;6.07;100.00;98806.70;221197;1277;138572;-75
2023/01/12 10:09:25;;;;;;;13.20;6.10;;;;;;;6.15;100.00;98804.71;221396;1275;22536;-74
2023/01/12 10:15:20;;;;;;;9.60;5.30;;;;;;;6.24;100.00;98804.56;221697;1278;138375;-76
2023/01/12 10:20:32;;;;;;;9.30;5.30;;;;;;;6.36;100.00;98789.61;221103;1279;138235;-75
2023/01/12 10:25:55;;;;;;;7.60;4.10;;;;;;;6.47;100.00;98785.16;221783;1262;138087;-76
2023/01/12 10:31:13;;;;;;;8.80;5.10;;;;;;;6.54;99.95;98784.61;221754;1275;138298;-74
2023/01/12 10:36:18;;;;;;;10.30;4.90;;;;;;;6.63;99.66;98790.12;221622;1276;151240;-76
2023/01/12 10:41:27;;;;;;;10.10;5.10;;;;;;;6.67;99.59;98777.95;221991;1276;138335;-74
2023/01/12 10:46:31;;;;;;;8.60;4.40;;;;;;;6.76;99.06;98787.34;221774;1273;138754;-74
2023/01/12 10:51:47;;;;;;;8.90;5.10;;;;;;;6.84;98.87;98780.02;221826;1276;22523;-75
2023/01/12 10:57:21;;;;;;;7.40;3.70;;;;;;;6.93;97.83;98775.45;221614;1279;137905;-75
2023/01/12 11:02:41;;;;;;;9.40;4.00;;;;;;;7.04;97.43;98761.83;221762;1277;138184;-75
2023/01/12 11:07:48;;;;;;;8.10;3.30;;;;;;;7.12;97.56;98756.77;221929;1276;137992;-75
2023/01/12 11:13:26;;;;;;;8.00;3.60;;;;;;;7.21;95.77;98754.64;221622;1257;138074;-75
2023/01/12 11:18:48;;;;;;;8.60;3.60;;;;;;;7.32;96.77;98739.98;221658;1272;138200;-76
2023/01/12 11:24:07;;;;;;;6.50;3.50;;;;;;;7.49;96.59;98721.20;221877;1274;139449;-76
2023/01/12 11:29:45;;;;;;;7.40;3.30;;;;;;;7.60;95.31;98721.77;221757;1264;138190;-77
2023/01/12 11:34:55;;;;;;;5.90;3.10;;;;;;;7.68;94.55;98719.35;221767;1261;138115;-75
2023/01/12 11:40:24;;;;;;;6.10;2.70;;;;;;;7.75;94.34;98707.65;221717;1269;22554;-76
2023/01/12 11:46:07;;;;;;;5.60;2.10;;;;;;;7.86;94.13;98690.30;221654;1275;24403;-75
2023/01/12 11:51:14;;;;;;;5.60;2.80;;;;;;;7.92;91.65;98690.96;221378;1276;137797;-74
2023/01/12 11:56:36;;;;;;;5.50;2.10;;;;;;;7.98;91.41;98693.55;221500;1277;138596;-75
2023/01/12 12:02:06;;;;;;;6.50;2.30;;;;;;;8.08;92.02;98681.89;221288;1273;137921;-75
2023/01/12 12:07:42;;;;;;;5.90;2.30;;;;;;;8.12;90.92;98668.68;221368;1276;138349;-75
2023/01/12 12:13:08;;;;;;;5.60;2.20;;;;;;;8.15;90.54;98670.20;221607;1277;138441;-75
2023/01/12 12:18:18;;;;;;;4.20;2.00;;;;;;;8.16;88.50;98671.59;221764;1273;138643;-75
2023/01/12 12:23:52;;;;;;;3.00;2.10;;;;;;;8.17;89.61;98668.61;221647;1264;138296;-73
2023/01/12 12:29:07;;;;;;;6.90;2.50;;;;;;;8.25;89.41;98671.71;221560;1279;138337;-74
2023/01/12 12:34:29;;;;;;;5.90;2.20;;;;;;;8.27;88.03;98682.80;221838;1279;22580;-75
2023/01/12 12:39:56;;;;;;;3.40;1.60;;;;;;;8.27;87.53;98682.05;221680;1277;25290;-74
2023/01/12 12:45:16;;;;;;;4.60;2.20;;;;;;;8.29;87.83;98670.09;221623;1272;137993;-74
2023/01/12 12:50:33;;;;;;;6.10;2.10;;;;;;;8.32;87.85;98660.71;221587;1274;139334;-74
2023/01/12 12:55:36;;;;;;;4.60;1.90;;;;;;;8.35;88.22;98663.59;221509;1272;139063;-75
2023/01/12 13:00:45;;;;;;;4.60;1.80;;;;;;;8.40;88.16;98667.36;221472;1276;138730;-75
2023/01/12 13:06:16;;;;;;;4.90;1.80;;;;;;;8.38;88.02;98655.55;221672;1276;138815;-75
2023/01/12 13:11:49;;;;;;;4.60;2.10;;;;;;;8.32;87.62;98646.80;221490;1280;138274;-75
2023/01/12 13:17:20;;;;;;;6.10;2.00;;;;;;;8.33;87.78;98641.08;221795;1274;138252;-74
2023/01/12 13:22:51;;;;;;;3.60;1.60;;;;;;;8.32;86.84;98639.69;221696;1278;138672;-75
2023/01/12 13:28:04;;;;;;;4.30;2.00;;;;;;;8.31;87.27;98637.40;221769;1269;23213;-74
2023/01/12 13:33:14;;;;;;;6.30;2.10;;;;;;;8.26;87.34;98631.14;221520;1279;138139;-76
2023/01/12 13:39:01;;;;;;;6.50;1.70;;;;;;;8.15;87.19;98625.33;221714;1277;138478;-76
2023/01/12 13:44:07;;;;;;;5.90;2.10;;;;;;;8.02;87.01;98621.61;221415;1279;138061;-76
2023/01/12 13:49:32;;;;;;;4.90;1.80;;;;;;;7.86;87.16;98620.14;221729;1279;138314;-76
2023/01/12 13:54:48;;;;;;;6.60;2.20;;;;;;;7.68;87.53;98618.02;221713;1279;138090;-76
2023/01/12 14:00:18;;;;;;;;;;;;;;;;;;;;;
2023/01/12 14:06:25;;;;;;;4.90;2.10;;;;;;;7.35;88.41;98627.25;221881;1272;138255;-76
2023/01/12 14:11:41;;;;;;;5.40;1.80;;;;;;;7.21;87.96;98620.89;220804;1278;139442;-75
2023/01/12 14:22:18;;;;;;;5.60;2.20;;;;;;;6.99;87.97;98610.96;221603;1273;24225;-75
2023/01/12 14:27:23;;;;;;;3.10;1.60;;;;;;;6.92;88.17;98614.74;221545;1279;139017;-73
2023/01/12 14:32:35;;;;;;;4.40;2.00;;;;;;;6.85;88.13;98613.27;221846;1273;139141;-75
2023/01/12 14:37:40;;;;;;;5.70;2.30;;;;;;;6.74;88.25;98609.75;221883;1269;138087;-76
2023/01/12 14:48:32;;;;;;;9.70;2.40;;;;;;;6.55;88.55;98613.16;222093;1270;138793;-75
2023/01/12 14:53:41;;;;;;;4.80;2.00;;;;;;;6.44;88.63;98611.19;221892;1275;138562;-75
2023/01/12 14:58:47;;;;;;;6.40;2.30;;;;;;;6.35;89.03;98602.34;222041;1273;138653;-73
2023/01/12 15:03:52;;;;;;;4.60;2.40;;;;;;;6.27;88.96;98603.02;221884;1272;22603;-74
2023/01/12 15:08:57;;;;;;;6.10;2.90;;;;;;;6.21;88.89;98592.96;221628;1279;22578;-75
2023/01/12 15:14:07;;;;;;;9.80;2.60;;;;;;;6.15;89.35;98589.54;222276;1275;24115;-73
2023/01/12 15:29:59;;;;;;;8.20;3.20;;;;;;;6.02;89.67;98590.63;221462;1260;25369;-74
2023/01/12 15:35:13;;;;;;;4.60;2.80;;;;;;;5.99;89.69;98589.67;221341;1279;25294;-74
2023/01/12 15:40:18;;;;;;;5.80;2.40;;;;;;;5.97;89.37;98590.86;221425;1273;22569;-75
2023/01/12 15:45:36;;;;;;;5.30;2.20;;;;;;;5.98;89.48;98590.84;221640;1278;24305;-74
2023/01/12 15:50:48;;;;;;;8.60;2.70;;;;;;;5.97;89.30;98591.31;221450;1279;22758;-74
2023/01/12 15:55:50;;;;;;;6.60;2.60;;;;;;;5.99;89.68;98588.02;221357;1279;23937;-74
2023/01/12 16:00:56;;;;;;;8.60;3.00;;;;;;;5.97;89.60;98578.05;221528;1278;26420;-74
2023/01/12 16:06:03;;;;;;;8.50;3.20;;;;;;;5.96;89.32;98579.16;222227;1279;22560;-74
2023/01/12 16:11:26;;;;;;;5.80;2.60;;;;;;;5.90;89.75;98568.13;221512;1279;25291;-75
2023/01/12 16:16:37;;;;;;;4.90;2.20;;;;;;;5.93;89.86;98576.23;221578;1276;22615;-75
2023/01/12 16:21:43;;;;;;;8.10;2.40;;;;;;;5.94;89.98;98577.13;221339;1279;22572;-75
2023/01/12 16:26:46;;;;;;;4.90;2.00;;;;;;;5.95;89.90;98573.36;221537;1270;25369;-74
2023/01/12 16:31:49;;;;;;;8.20;2.90;;;;;;;5.92;90.19;98575.85;221292;1278;22558;-75
2023/01/12 16:36:55;;;;;;;4.60;2.50;;;;;;;5.89;90.48;98573.73;221322;1279;22550;-75
2023/01/12 16:42:03;;;;;;;7.20;3.00;;;;;;;5.86;90.42;98566.20;221448;1278;22581;-74
2023/01/12 16:47:14;;;;;;;7.40;3.30;;;;;;;5.80;90.37;98553.38;221409;1278;25770;-73
2023/01/12 16:52:20;;;;;;;8.80;2.60;;;;;;;5.77;90.65;98548.00;221652;1275;25351;-73
2023/01/12 16:57:22;;;;;;;8.70;3.00;;;;;;;5.75;90.98;98547.41;221475;1265;22641;-74
2023/01/12 17:02:26;;;;;;;5.60;2.80;;;;;;;5.76;90.74;98541.89;221592;1279;22659;-75
2023/01/12 17:07:28;;;;;;;7.30;3.00;;;;;;;5.79;90.51;98526.90;221737;1277;24081;-74
2023/01/12 17:12:32;;;;;;;8.50;3.20;;;;;;;5.80;90.38;98533.13;221863;1279;25444;-72
2023/01/12 17:17:35;;;;;;;9.50;3.50;;;;;;;5.77;90.85;98534.56;221413;1279;22534;-73
2023/01/12 17:22:39;;;;;;;8.70;4.40;;;;;;;5.73;90.70;98532.15;221435;1276;22552;-74
2023/01/12 17:27:42;;;;;;;7.30;3.50;;;;;;;5.71;90.78;98529.80;222264;1275;24263;-74
2023/01/12 17:32:48;;;;;;;11.50;4.50;;;;;;;5.69;90.98;98528.80;221547;1279;22533;-76
2023/01/12 17:37:54;;;;;;;9.40;4.40;;;;;;;5.63;91.04;98523.98;221551;1279;25358;-74
2023/01/12 17:43:04;;;;;;;7.50;3.90;;;;;;;5.59;91.01;98525.64;222486;1279;22543;-74
2023/01/12 17:48:16;;;;;;;9.40;4.30;;;;;;;5.53;91.05;98521.95;221297;1273;22556;-73
2023/01/12 17:53:21;;;;;;;9.80;3.90;;;;;;;5.47;90.95;98528.14;221479;1278;22509;-74
2023/01/12 17:58:24;;;;;;;11.70;4.60;;;;;;;5.43;91.24;98530.52;221446;1275;24119;-74
2023/01/12 18:03:26;;;;;;;13.20;4.60;;;;;;;5.37;91.25;98526.45;221374;1275;22630;-73
2023/01/12 18:08:29;;;;;;;9.80;4.10;;;;;;;5.32;91.58;98523.14;221332;1278;22676;-75
2023/01/12 18:13:35;;;;;;;11.10;4.30;;;;;;;5.28;91.54;98520.79;221717;1272;22562;-73
2023/01/12 18:18:42;;;;;;;11.20;4.50;;;;;;;5.27;91.95;98511.61;221452;1278;24391;-73
2023/01/12 18:23:51;;;;;;;8.30;4.30;;;;;;;5.26;92.19;98499.70;221559;1279;22556;-75
2023/01/12 18:28:57;;;;;;;10.90;5.00;;;;;;;5.23;92.16;98503.03;221478;1278;23314;-73
2023/01/12 18:34:09;;;;;;;9.80;5.10;;;;;;;5.21;92.74;98499.89;221602;1272;22604;-72
2023/01/12 18:39:20;;;;;;;11.20;4.60;;;;;;;5.19;92.58;98491.13;222305;1278;23220;-73
2023/01/12 18:44:24;;;;;;;8.40;3.50;;;;;;;5.23;92.71;98484.50;221642;1279;22536;-73
2023/01/12 18:49:31;;;;;;;10.50;3.80;;;;;;;5.26;92.67;98490.52;221475;1265;24575;-73
2023/01/12 18:54:46;;;;;;;6.90;3.40;;;;;;;5.28;93.07;98498.55;221670;1276;24352;-74
2023/01/12 19:00:12;;;;;;;6.20;2.70;;;;;;;5.35;93.41;98497.86;221267;1275;27938;-74
2023/01/12 19:05:21;;;;;;;8.80;2.30;;;;;;;5.39;93.09;98491.14;221428;1279;24250;-73
2023/01/12 19:10:24;;;;;;;7.50;2.70;;;;;;;5.46;93.47;98491.48;221398;1278;22576;-73
2023/01/12 19:20:48;;;;;;;4.30;2.20;;;;;;;5.57;93.41;98492.79;221413;1278;22566;-74
2023/01/12 19:31:26;;;;;;;2.90;1.90;;;;;;;5.57;93.33;98487.09;222318;1279;22661;-73
2023/01/12 19:36:37;;;;;;;4.50;2.20;;;;;;;5.55;93.80;98479.65;221430;1276;22623;-73
2023/01/12 19:47:02;;;;;;;5.60;2.30;;;;;;;5.56;93.51;98483.05;221343;1279;24239;-73
2023/01/12 19:52:04;;;;;;;5.00;2.20;;;;;;;5.55;93.93;98485.92;221471;1275;22538;-75
2023/01/12 19:57:06;;;;;;;4.50;1.70;;;;;;;5.52;94.07;98479.96;221205;1279;24219;-74
2023/01/12 20:02:12;;;;;;;2.80;1.40;;;;;;;5.50;94.10;98481.65;221422;1276;22581;-74
2023/01/12 20:07:14;;;;;;;4.50;1.80;;;;;;;5.51;94.51;98483.08;221416;1275;260144;-75
2023/01/12 20:12:16;;;;;;;6.30;1.70;;;;;;;5.50;94.97;98482.89;221547;1275;22579;-73
2023/01/12 20:17:21;;;;;;;5.00;1.50;;;;;;;5.50;94.89;98483.83;221459;1275;22529;-75
2023/01/12 20:22:28;;;;;;;4.60;1.70;;;;;;;5.50;95.26;98482.09;221531;1276;22540;-75
2023/01/12 20:27:34;;;;;;;4.90;1.80;;;;;;;5.52;95.03;98482.46;221342;1279;24235;-75
2023/01/12 20:32:40;;;;;;;6.60;2.20;;;;;;;5.49;95.20;98473.48;221561;1275;22560;-74
2023/01/12 20:37:43;;;;;;;4.90;2.50;;;;;;;5.49;95.48;98471.13;221440;1278;22680;-74
2023/01/12 20:42:48;;;;;;;6.10;1.80;;;;;;;5.49;95.59;98468.59;221302;1277;25556;-74
2023/01/12 20:47:51;;;;;;;4.10;1.60;;;;;;;5.49;96.00;98474.80;221382;1278;22624;-73
2023/01/12 20:52:54;;;;;;;4.80;1.60;;;;;;;5.55;96.02;98478.01;222446;1279;23786;-73
2023/01/12 20:57:56;;;;;;;3.20;1.70;;;;;;;5.65;96.30;98476.27;221382;1275;24316;-75
2023/01/12 21:02:59;;;;;;;7.60;2.00;;;;;;;5.74;95.83;98469.73;221543;1279;24299;-72
2023/01/12 21:08:01;;;;;;;5.00;1.60;;;;;;;5.79;96.08;98463.52;221398;1278;22567;-73
2023/01/12 21:13:09;;;;;;;2.60;1.60;;;;;;;5.81;95.89;98466.84;221538;1276;22549;-74
2023/01/12 21:18:12;;;;;;;5.10;1.90;;;;;;;5.79;95.93;98474.43;221396;1272;22537;-73
2023/01/12 21:23:14;;;;;;;5.20;1.90;;;;;;;5.78;95.88;98473.85;221617;1277;22533;-74
2023/01/12 21:28:17;;;;;;;4.60;1.60;;;;;;;5.78;95.85;98474.33;221513;1275;24397;-73
2023/01/12 21:33:20;;;;;;;3.90;2.10;;;;;;;5.76;96.05;98467.20;221508;1276;22666;-74
2023/01/12 21:38:23;;;;;;;4.30;1.50;;;;;;;5.74;95.84;98462.95;221502;1279;25469;-74
2023/01/12 21:43:26;;;;;;;5.20;2.10;;;;;;;5.71;95.96;98458.05;221525;1279;22548;-74
2023/01/12 21:48:29;;;;;;;7.10;2.00;;;;;;;5.67;95.90;98462.61;221326;1278;22517;-75
2023/01/12 21:53:32;;;;;;;4.50;1.90;;;;;;;5.61;96.16;98460.52;221567;1278;24325;-73
2023/01/12 21:58:36;;;;;;;4.10;1.90;;;;;;;5.56;96.66;98453.88;221591;1275;25388;-74
2023/01/12 22:03:39;;;;;;;4.60;1.60;;;;;;;5.47;96.13;98448.48;221407;1278;22538;-74
2023/01/12 22:08:42;;;;;;;5.70;2.00;;;;;;;5.39;96.53;98453.52;221329;1277;25385;-74
2023/01/12 22:13:54;;;;;;;6.40;1.50;;;;;;;5.34;96.95;98455.48;221490;1279;24354;-73
2023/01/12 22:18:56;;;;;;;5.20;1.60;;;;;;;5.32;97.16;98449.09;221381;1278;22541;-73
2023/01/12 22:23:59;;;;;;;3.50;1.80;;;;;;;5.29;97.41;98445.64;221576;1278;22618;-75
2023/01/12 22:29:02;;;;;;;5.10;2.00;;;;;;;5.26;97.38;98446.14;221575;1275;25426;-74
2023/01/12 22:34:05;;;;;;;7.50;2.10;;;;;;;5.21;97.94;98441.73;221490;1279;22671;-75
2023/01/12 22:39:13;;;;;;;3.40;1.70;;;;;;;5.19;98.49;98441.36;221673;1279;22538;-75
2023/01/12 22:44:16;;;;;;;6.70;2.00;;;;;;;5.20;98.12;98431.75;221499;1279;24366;-74
2023/01/12 22:49:26;;;;;;;5.60;1.40;;;;;;;5.23;98.46;98436.27;221290;1278;22540;-74
2023/01/12 22:54:29;;;;;;;8.50;2.20;;;;;;;5.20;98.45;98434.13;221567;1279;23023;-75
2023/01/12 22:59:31;;;;;;;2.90;1.60;;;;;;;5.21;98.74;98433.66;221524;1277;23141;-73
2023/01/12 23:04:47;;;;;;;5.00;1.70;;;;;;;5.26;98.78;98426.13;221415;1275;24229;-73
2023/01/12 23:09:52;;;;;;;2.80;1.50;;;;;;;5.29;98.95;98426.51;221267;1279;23802;-73
2023/01/12 23:14:55;;;;;;;3.10;1.20;;;;;;;5.39;99.41;98421.97;221408;1277;22646;-73
2023/01/12 23:19:57;;;;;;;4.50;1.30;;;;;;;5.42;99.17;98417.67;221349;1277;22540;-74
2023/01/12 23:25:00;;;;;;;1.30;1.20;;;;;;;5.45;98.99;98412.46;221179;1274;22507;-74
2023/01/12 23:30:03;;;;;;;4.00;1.10;;;;;;;5.48;99.34;98413.80;221587;1276;24236;-74
2023/01/12 23:35:06;;;;;;;2.20;1.30;;;;;;;5.53;99.31;98417.79;221394;1279;25304;-73
2023/01/12 23:40:09;;;;;;;3.40;1.00;;;;;;;5.62;99.15;98416.67;221683;1279;22567;-73
2023/01/12 23:45:15;;;;;;;3.40;0.90;;;;;;;5.71;99.27;98414.52;221572;1272;24947;-74
2023/01/12 23:50:20;;;;;;;2.40;1.30;;;;;;;5.77;99.28;98412.66;221489;1278;22557;-75
2023/01/12 23:55:24;;;;;;;2.90;1.00;;;;;;;5.80;98.64;98409.94;221483;1270;22591;-75
